createdAt,value
2023-04-28T00:00:13.596Z,0.00
2023-04-28T00:01:13.558Z,0.00
2023-04-28T00:02:13.631Z,0.00
2023-04-28T00:03:13.615Z,0.00
2023-04-28T00:04:13.773Z,0.00
2023-04-28T00:05:13.599Z,0.00
2023-04-28T00:06:13.397Z,0.00
2023-04-28T00:07:13.359Z,0.00
2023-04-28T00:08:13.327Z,0.00
2023-04-28T00:09:13.297Z,0.00
2023-04-28T00:10:13.262Z,0.00
2023-04-28T00:11:13.233Z,0.00
2023-04-28T00:12:13.209Z,0.00
2023-04-28T00:13:13.163Z,0.00
2023-04-28T00:14:13.191Z,0.00
2023-04-28T00:15:13.091Z,0.00
2023-04-28T00:16:13.112Z,0.00
2023-04-28T00:17:13.061Z,0.00
2023-04-28T00:18:13.012Z,0.00
2023-04-28T00:19:12.957Z,0.00
2023-04-28T00:20:12.921Z,0.00
2023-04-28T00:21:12.894Z,0.00
2023-04-28T00:22:12.866Z,0.00
2023-04-28T00:23:12.824Z,0.00
2023-04-28T00:24:12.851Z,0.00
2023-04-28T00:25:12.774Z,0.00
2023-04-28T00:26:12.718Z,0.00
2023-04-28T00:27:12.686Z,0.00
2023-04-28T00:28:16.059Z,0.00
2023-04-28T00:29:12.658Z,0.00
2023-04-28T00:30:12.611Z,0.00
2023-04-28T00:31:12.587Z,0.00
2023-04-28T00:32:12.543Z,0.00
2023-04-28T00:33:12.482Z,0.00
2023-04-28T00:34:12.448Z,0.00
2023-04-28T00:35:12.460Z,0.00
2023-04-28T00:36:12.379Z,0.00
2023-04-28T00:37:12.347Z,0.00
2023-04-28T00:38:12.309Z,0.00
2023-04-28T00:39:12.277Z,0.00
2023-04-28T00:40:12.259Z,0.00
2023-04-28T00:41:12.211Z,0.00
2023-04-28T00:42:12.182Z,0.00
2023-04-28T00:43:12.158Z,0.00
2023-04-28T00:44:12.108Z,0.00
2023-04-28T00:45:12.077Z,0.00
2023-04-28T00:46:12.093Z,0.00
2023-04-28T00:47:12.007Z,0.00
2023-04-28T00:48:11.972Z,0.00
2023-04-28T00:49:11.938Z,0.00
2023-04-28T00:50:11.908Z,0.00
2023-04-28T00:51:11.885Z,0.00
2023-04-28T00:52:11.846Z,0.00
2023-04-28T00:53:11.805Z,0.00
2023-04-28T00:54:11.763Z,0.00
2023-04-28T00:55:11.739Z,0.00
2023-04-28T00:56:11.707Z,0.00
2023-04-28T00:57:11.665Z,0.00
2023-04-28T00:58:11.628Z,0.00
2023-04-28T00:59:11.600Z,0.00
2023-04-28T01:00:11.577Z,0.00
2023-04-28T01:01:11.578Z,0.00
2023-04-28T01:02:11.506Z,0.00
2023-04-28T01:03:11.644Z,0.00
2023-04-28T01:04:11.593Z,0.00
2023-04-28T01:05:11.396Z,0.00
2023-04-28T01:06:11.359Z,0.00
2023-04-28T01:07:11.327Z,0.00
2023-04-28T01:08:11.291Z,0.00
2023-04-28T01:09:11.255Z,0.00
2023-04-28T01:10:11.218Z,0.00
2023-04-28T01:11:11.189Z,0.00
2023-04-28T01:12:11.152Z,0.00
2023-04-28T01:13:11.134Z,0.00
2023-04-28T01:14:11.087Z,0.00
2023-04-28T01:15:11.059Z,0.00
2023-04-28T01:16:11.050Z,0.00
2023-04-28T01:17:10.982Z,0.00
2023-04-28T01:18:10.965Z,0.00
2023-04-28T01:19:10.912Z,0.00
2023-04-28T01:20:10.884Z,0.00
2023-04-28T01:21:10.847Z,0.00
2023-04-28T01:22:10.824Z,0.00
2023-04-28T01:23:10.787Z,0.00
2023-04-28T01:24:10.757Z,0.00
2023-04-28T01:25:10.714Z,0.00
2023-04-28T01:26:10.681Z,0.00
2023-04-28T01:27:10.646Z,0.00
2023-04-28T01:28:10.617Z,0.00
2023-04-28T01:29:10.577Z,0.00
2023-04-28T01:30:10.540Z,0.00
2023-04-28T01:31:10.537Z,0.00
2023-04-28T01:32:10.480Z,0.00
2023-04-28T01:33:10.475Z,0.00
2023-04-28T01:34:10.404Z,0.00
2023-04-28T01:35:10.374Z,0.00
2023-04-28T01:36:10.340Z,0.00
2023-04-28T01:37:10.328Z,0.00
2023-04-28T01:38:10.266Z,0.00
2023-04-28T01:39:10.239Z,0.00
2023-04-28T01:40:10.203Z,0.00
2023-04-28T01:41:10.165Z,0.00
2023-04-28T01:42:10.129Z,0.00
2023-04-28T01:43:10.107Z,0.00
2023-04-28T01:44:10.073Z,0.00
2023-04-28T01:45:10.031Z,0.00
2023-04-28T01:46:10.074Z,0.00
2023-04-28T01:47:09.962Z,0.00
2023-04-28T01:48:09.944Z,0.00
2023-04-28T01:49:09.892Z,0.00
2023-04-28T01:50:09.858Z,0.00
2023-04-28T01:51:09.826Z,0.00
2023-04-28T01:52:09.802Z,0.00
2023-04-28T01:53:09.759Z,0.00
2023-04-28T01:54:09.723Z,0.00
2023-04-28T01:55:09.707Z,0.00
2023-04-28T01:56:09.669Z,0.00
2023-04-28T01:57:09.642Z,0.00
2023-04-28T01:58:09.581Z,0.00
2023-04-28T01:59:09.555Z,0.00
2023-04-28T02:00:09.510Z,0.00
2023-04-28T02:01:09.513Z,0.00
2023-04-28T02:02:09.449Z,0.00
2023-04-28T02:03:09.449Z,0.00
2023-04-28T02:04:09.719Z,0.00
2023-04-28T02:05:09.346Z,0.00
2023-04-28T02:06:09.309Z,0.00
2023-04-28T02:07:09.291Z,0.00
2023-04-28T02:08:09.241Z,0.00
2023-04-28T02:09:09.216Z,0.00
2023-04-28T02:10:09.269Z,0.00
2023-04-28T02:11:09.135Z,0.00
2023-04-28T02:12:09.106Z,0.00
2023-04-28T02:13:09.068Z,0.00
2023-04-28T02:14:09.040Z,0.00
2023-04-28T02:15:09.004Z,0.00
2023-04-28T02:16:09.018Z,0.00
2023-04-28T02:17:08.937Z,0.00
2023-04-28T02:18:08.922Z,0.00
2023-04-28T02:19:08.863Z,0.00
2023-04-28T02:20:08.882Z,0.00
2023-04-28T02:21:08.794Z,0.00
2023-04-28T02:22:08.759Z,0.00
2023-04-28T02:23:08.738Z,0.00
2023-04-28T02:24:08.687Z,0.00
2023-04-28T02:25:08.660Z,0.00
2023-04-28T02:26:08.618Z,0.00
2023-04-28T02:27:08.593Z,0.00
2023-04-28T02:28:08.554Z,0.00
2023-04-28T02:29:08.522Z,0.00
2023-04-28T02:30:08.489Z,0.00
2023-04-28T02:31:08.481Z,0.00
2023-04-28T02:32:08.419Z,0.00
2023-04-28T02:33:08.406Z,0.00
2023-04-28T02:34:08.351Z,0.00
2023-04-28T02:35:08.314Z,0.00
2023-04-28T02:36:08.290Z,0.00
2023-04-28T02:37:08.253Z,0.00
2023-04-28T02:38:08.215Z,0.00
2023-04-28T02:39:08.174Z,0.00
2023-04-28T02:40:08.149Z,0.00
2023-04-28T02:41:08.110Z,0.00
2023-04-28T02:42:08.078Z,0.00
2023-04-28T02:43:08.043Z,0.00
2023-04-28T02:44:08.006Z,0.00
2023-04-28T02:45:07.973Z,0.00
2023-04-28T02:46:08.014Z,0.00
2023-04-28T02:47:07.960Z,0.00
2023-04-28T02:48:07.890Z,0.00
2023-04-28T02:49:07.851Z,0.00
2023-04-28T02:50:07.811Z,0.00
2023-04-28T02:51:07.773Z,0.00
2023-04-28T02:52:07.734Z,0.00
2023-04-28T02:53:07.699Z,0.00
2023-04-28T02:54:07.663Z,0.00
2023-04-28T02:55:07.638Z,0.00
2023-04-28T02:56:07.610Z,0.00
2023-04-28T02:57:07.564Z,0.00
2023-04-28T02:58:07.525Z,0.00
2023-04-28T02:59:07.499Z,0.00
2023-04-28T03:00:07.474Z,0.00
2023-04-28T03:01:07.462Z,0.00
2023-04-28T03:02:07.392Z,0.00
2023-04-28T03:03:07.529Z,0.00
2023-04-28T03:04:07.552Z,0.00
2023-04-28T03:05:07.291Z,0.00
2023-04-28T03:06:07.258Z,0.00
2023-04-28T03:07:07.255Z,0.00
2023-04-28T03:08:07.247Z,0.00
2023-04-28T03:09:07.161Z,0.00
2023-04-28T03:10:07.119Z,0.00
2023-04-28T03:11:07.095Z,0.00
2023-04-28T03:12:07.048Z,0.00
2023-04-28T03:13:07.056Z,0.00
2023-04-28T03:14:06.980Z,0.00
2023-04-28T03:15:06.954Z,0.00
2023-04-28T03:16:06.963Z,0.00
2023-04-28T03:17:06.875Z,0.00
2023-04-28T03:18:06.917Z,0.00
2023-04-28T03:19:06.807Z,0.00
2023-04-28T03:20:06.770Z,0.00
2023-04-28T03:21:06.739Z,0.00
2023-04-28T03:22:06.704Z,0.00
2023-04-28T03:23:06.672Z,0.00
2023-04-28T03:24:06.642Z,0.00
2023-04-28T03:25:06.610Z,0.00
2023-04-28T03:26:06.577Z,0.00
2023-04-28T03:27:06.539Z,0.00
2023-04-28T03:28:06.504Z,0.00
2023-04-28T03:29:06.469Z,0.00
2023-04-28T03:30:06.430Z,0.00
2023-04-28T03:31:06.398Z,0.00
2023-04-28T03:32:06.387Z,0.00
2023-04-28T03:33:06.369Z,0.00
2023-04-28T03:34:06.294Z,0.00
2023-04-28T03:35:06.262Z,0.00
2023-04-28T03:36:06.224Z,0.00
2023-04-28T03:37:06.191Z,0.00
2023-04-28T03:38:06.155Z,0.00
2023-04-28T03:39:06.120Z,0.00
2023-04-28T03:40:06.086Z,0.00
2023-04-28T03:41:06.052Z,0.00
2023-04-28T03:42:06.014Z,0.00
2023-04-28T03:43:05.995Z,0.00
2023-04-28T03:44:05.948Z,0.00
2023-04-28T03:45:05.916Z,0.00
2023-04-28T03:46:05.887Z,0.00
2023-04-28T03:47:05.846Z,0.00
2023-04-28T03:48:05.843Z,0.00
2023-04-28T03:49:05.781Z,0.00
2023-04-28T03:50:05.761Z,0.00
2023-04-28T03:51:05.711Z,0.00
2023-04-28T03:52:05.693Z,0.00
2023-04-28T03:53:05.635Z,0.00
2023-04-28T03:54:05.602Z,0.00
2023-04-28T03:55:05.581Z,0.00
2023-04-28T03:56:05.538Z,0.00
2023-04-28T03:57:05.501Z,0.00
2023-04-28T03:58:05.467Z,0.00
2023-04-28T03:59:05.432Z,0.00
2023-04-28T04:00:05.394Z,0.00
2023-04-28T04:01:05.365Z,0.00
2023-04-28T04:02:05.359Z,4.00
2023-04-28T04:03:05.433Z,4.00
2023-04-28T04:04:05.472Z,4.00
2023-04-28T04:05:05.350Z,0.00
2023-04-28T04:06:05.189Z,0.00
2023-04-28T04:07:05.163Z,4.00
2023-04-28T04:08:05.119Z,4.00
2023-04-28T04:09:05.090Z,4.00
2023-04-28T04:10:05.053Z,8.00
2023-04-28T04:11:05.023Z,4.00
2023-04-28T04:12:04.990Z,8.00
2023-04-28T04:13:04.948Z,8.00
2023-04-28T04:14:04.912Z,8.00
2023-04-28T04:15:04.938Z,8.00
2023-04-28T04:16:04.906Z,8.00
2023-04-28T04:17:04.820Z,8.00
2023-04-28T04:18:04.811Z,8.00
2023-04-28T04:19:04.746Z,8.00
2023-04-28T04:20:04.719Z,8.00
2023-04-28T04:21:04.681Z,8.00
2023-04-28T04:22:04.637Z,8.00
2023-04-28T04:23:04.604Z,8.00
2023-04-28T04:24:04.579Z,8.00
2023-04-28T04:25:04.538Z,12.00
2023-04-28T04:26:04.500Z,8.00
2023-04-28T04:27:04.464Z,12.00
2023-04-28T04:28:04.442Z,12.00
2023-04-28T04:29:04.402Z,16.00
2023-04-28T04:30:04.363Z,20.00
2023-04-28T04:31:04.374Z,20.00
2023-04-28T04:32:04.326Z,24.00
2023-04-28T04:33:04.357Z,24.00
2023-04-28T04:34:04.228Z,20.00
2023-04-28T04:35:04.192Z,20.00
2023-04-28T04:36:04.158Z,24.00
2023-04-28T04:37:04.120Z,20.00
2023-04-28T04:38:04.088Z,24.00
2023-04-28T04:39:04.060Z,24.00
2023-04-28T04:40:04.022Z,24.00
2023-04-28T04:41:03.982Z,24.00
2023-04-28T04:42:13.380Z,24.00
2023-04-28T04:43:03.912Z,28.00
2023-04-28T04:44:03.941Z,28.00
2023-04-28T04:45:03.843Z,32.00
2023-04-28T04:46:03.834Z,32.00
2023-04-28T04:47:03.774Z,32.00
2023-04-28T04:48:03.787Z,36.00
2023-04-28T04:49:03.704Z,36.00
2023-04-28T04:50:03.686Z,36.00
2023-04-28T04:51:03.651Z,36.00
2023-04-28T04:52:03.601Z,36.00
2023-04-28T04:53:03.572Z,36.00
2023-04-28T04:54:03.543Z,36.00
2023-04-28T04:55:03.497Z,36.00
2023-04-28T04:56:03.478Z,40.00
2023-04-28T04:57:03.441Z,40.00
2023-04-28T04:58:03.397Z,40.00
2023-04-28T04:59:07.749Z,52.00
2023-04-28T05:00:03.327Z,68.00
2023-04-28T05:01:03.303Z,92.00
2023-04-28T05:02:03.294Z,124.00
2023-04-28T05:03:03.361Z,144.00
2023-04-28T05:04:03.355Z,148.00
2023-04-28T05:05:16.817Z,132.00
2023-04-28T05:06:03.147Z,116.00
2023-04-28T05:07:03.083Z,96.00
2023-04-28T05:08:03.058Z,80.00
2023-04-28T05:09:03.017Z,64.00
2023-04-28T05:10:03.003Z,56.00
2023-04-28T05:11:02.954Z,52.00
2023-04-28T05:12:02.920Z,60.00
2023-04-28T05:13:02.893Z,68.00
2023-04-28T05:14:02.850Z,84.00
2023-04-28T05:15:02.820Z,108.00
2023-04-28T05:16:02.816Z,128.00
2023-04-28T05:17:02.751Z,148.00
2023-04-28T05:18:02.726Z,164.00
2023-04-28T05:19:02.676Z,188.00
2023-04-28T05:20:02.635Z,204.00
2023-04-28T05:21:02.606Z,216.00
2023-04-28T05:22:02.579Z,216.00
2023-04-28T05:23:02.534Z,216.00
2023-04-28T05:24:02.519Z,212.00
2023-04-28T05:25:02.468Z,208.00
2023-04-28T05:26:02.440Z,224.00
2023-04-28T05:27:02.413Z,240.00
2023-04-28T05:28:02.365Z,256.00
2023-04-28T05:29:02.328Z,268.00
2023-04-28T05:30:02.300Z,276.00
2023-04-28T05:31:02.260Z,272.00
2023-04-28T05:32:02.261Z,264.00
2023-04-28T05:33:02.260Z,268.00
2023-04-28T05:34:02.212Z,272.00
2023-04-28T05:35:02.119Z,292.00
2023-04-28T05:36:02.083Z,304.00
2023-04-28T05:37:02.061Z,316.00
2023-04-28T05:38:02.023Z,332.00
2023-04-28T05:39:02.006Z,348.00
2023-04-28T05:40:01.972Z,352.00
2023-04-28T05:41:01.916Z,348.00
2023-04-28T05:42:01.876Z,348.00
2023-04-28T05:43:01.844Z,348.00
2023-04-28T05:44:01.821Z,356.00
2023-04-28T05:45:01.777Z,384.00
2023-04-28T05:46:01.796Z,412.00
2023-04-28T05:47:01.919Z,412.00
2023-04-28T05:48:01.711Z,392.00
2023-04-28T05:49:01.660Z,376.00
2023-04-28T05:50:01.596Z,364.00
2023-04-28T05:51:01.566Z,348.00
2023-04-28T05:52:01.559Z,332.00
2023-04-28T05:53:01.543Z,320.00
2023-04-28T05:54:01.470Z,296.00
2023-04-28T05:55:01.456Z,296.00
2023-04-28T05:56:01.428Z,300.00
2023-04-28T05:57:01.707Z,316.00
2023-04-28T05:58:01.319Z,332.00
2023-04-28T05:59:01.289Z,356.00
2023-04-28T06:00:01.271Z,380.00
2023-04-28T06:01:01.212Z,392.00
2023-04-28T06:02:01.219Z,388.00
2023-04-28T06:03:01.270Z,376.00
2023-04-28T06:04:01.609Z,364.00
2023-04-28T06:05:01.338Z,356.00
2023-04-28T06:06:01.089Z,332.00
2023-04-28T06:07:01.010Z,328.00
2023-04-28T06:08:00.978Z,332.00
2023-04-28T06:09:00.939Z,324.00
2023-04-28T06:10:00.917Z,324.00
2023-04-28T06:11:00.874Z,328.00
2023-04-28T06:12:00.838Z,320.00
2023-04-28T06:13:00.809Z,304.00
2023-04-28T06:14:00.763Z,308.00
2023-04-28T06:15:00.744Z,388.00
2023-04-28T06:16:00.787Z,468.00
2023-04-28T06:17:00.658Z,480.00
2023-04-28T06:18:00.690Z,396.00
2023-04-28T06:19:00.589Z,352.00
2023-04-28T06:20:00.563Z,400.00
2023-04-28T06:21:00.531Z,492.00
2023-04-28T06:22:00.491Z,504.00
2023-04-28T06:23:00.452Z,572.00
2023-04-28T06:24:00.425Z,632.00
2023-04-28T06:25:00.382Z,708.00
2023-04-28T06:26:00.358Z,776.00
2023-04-28T06:27:00.313Z,800.00
2023-04-28T06:28:00.283Z,784.00
2023-04-28T06:29:00.243Z,776.00
2023-04-28T06:30:00.211Z,784.00
2023-04-28T06:31:00.274Z,808.00
2023-04-28T06:32:00.156Z,748.00
2023-04-28T06:33:00.161Z,564.00
2023-04-28T06:34:00.082Z,476.00
2023-04-28T06:35:00.051Z,508.00
2023-04-28T06:36:00.001Z,636.00
2023-04-28T06:36:59.965Z,776.00
2023-04-28T06:37:59.931Z,936.00
2023-04-28T06:38:59.911Z,988.00
2023-04-28T06:39:59.869Z,896.00
2023-04-28T06:40:59.834Z,892.00
2023-04-28T06:41:59.792Z,936.00
2023-04-28T06:42:59.791Z,1020.00
2023-04-28T06:43:59.731Z,1264.00
2023-04-28T06:44:59.708Z,1556.00
2023-04-28T06:45:59.660Z,1640.00
2023-04-28T06:46:59.686Z,1580.00
2023-04-28T06:47:59.638Z,1628.00
2023-04-28T06:48:59.553Z,1644.00
2023-04-28T06:49:59.521Z,1608.00
2023-04-28T06:50:59.488Z,1252.00
2023-04-28T06:51:59.460Z,996.00
2023-04-28T06:52:59.421Z,1076.00
2023-04-28T06:53:59.380Z,1048.00
2023-04-28T06:54:59.352Z,928.00
2023-04-28T06:55:59.319Z,892.00
2023-04-28T06:56:59.280Z,996.00
2023-04-28T06:57:59.249Z,1188.00
2023-04-28T06:58:59.213Z,1432.00
2023-04-28T06:59:59.175Z,1332.00
2023-04-28T07:00:59.172Z,1156.00
2023-04-28T07:01:59.170Z,1032.00
2023-04-28T07:02:59.241Z,960.00
2023-04-28T07:03:59.284Z,920.00
2023-04-28T07:04:59.007Z,844.00
2023-04-28T07:05:58.973Z,852.00
2023-04-28T07:06:58.939Z,952.00
2023-04-28T07:07:58.905Z,968.00
2023-04-28T07:08:58.888Z,896.00
2023-04-28T07:09:58.838Z,816.00
2023-04-28T07:10:58.816Z,744.00
2023-04-28T07:11:58.776Z,788.00
2023-04-28T07:12:58.758Z,936.00
2023-04-28T07:13:58.705Z,1064.00
2023-04-28T07:14:58.679Z,1068.00
2023-04-28T07:15:58.699Z,1004.00
2023-04-28T07:16:58.799Z,932.00
2023-04-28T07:17:58.633Z,848.00
2023-04-28T07:18:58.545Z,684.00
2023-04-28T07:19:58.505Z,624.00
2023-04-28T07:20:58.473Z,604.00
2023-04-28T07:21:58.435Z,600.00
2023-04-28T07:22:58.406Z,660.00
2023-04-28T07:23:58.370Z,904.00
2023-04-28T07:24:58.337Z,1180.00
2023-04-28T07:25:58.298Z,1292.00
2023-04-28T07:26:58.262Z,1624.00
2023-04-28T07:27:58.231Z,1756.00
2023-04-28T07:28:58.199Z,1692.00
2023-04-28T07:29:58.288Z,1648.00
2023-04-28T07:30:58.302Z,1660.00
2023-04-28T07:31:58.156Z,1720.00
2023-04-28T07:32:58.065Z,1792.00
2023-04-28T07:33:58.024Z,1780.00
2023-04-28T07:34:58.000Z,1732.00
2023-04-28T07:35:57.951Z,1656.00
2023-04-28T07:36:57.925Z,1640.00
2023-04-28T07:37:57.915Z,1672.00
2023-04-28T07:38:57.854Z,1620.00
2023-04-28T07:39:57.821Z,1700.00
2023-04-28T07:40:57.910Z,1768.00
2023-04-28T07:41:57.758Z,1648.00
2023-04-28T07:42:57.726Z,1968.00
2023-04-28T07:43:57.702Z,1888.00
2023-04-28T07:44:57.654Z,1852.00
2023-04-28T07:45:57.665Z,1744.00
2023-04-28T07:46:57.588Z,1604.00
2023-04-28T07:47:57.676Z,1556.00
2023-04-28T07:48:57.517Z,1840.00
2023-04-28T07:49:57.484Z,2036.00
2023-04-28T07:50:57.450Z,2048.00
2023-04-28T07:51:57.418Z,2180.00
2023-04-28T07:52:57.384Z,2324.00
2023-04-28T07:53:57.367Z,2480.00
2023-04-28T07:54:57.322Z,2572.00
2023-04-28T07:55:57.292Z,2620.00
2023-04-28T07:56:57.253Z,2432.00
2023-04-28T07:57:57.217Z,2204.00
2023-04-28T07:58:57.189Z,1748.00
2023-04-28T07:59:57.150Z,1760.00
2023-04-28T08:00:57.118Z,1992.00
2023-04-28T08:01:57.101Z,2256.00
2023-04-28T08:02:57.252Z,1968.00
2023-04-28T08:03:57.311Z,1936.00
2023-04-28T08:04:57.266Z,2408.00
2023-04-28T08:05:56.996Z,2188.00
2023-04-28T08:06:56.914Z,2064.00
2023-04-28T08:07:56.883Z,2060.00
2023-04-28T08:08:56.855Z,1880.00
2023-04-28T08:09:57.371Z,1956.00
2023-04-28T08:10:56.789Z,1924.00
2023-04-28T08:11:56.756Z,2048.00
2023-04-28T08:12:56.717Z,2488.00
2023-04-28T08:13:56.697Z,2276.00
2023-04-28T08:14:56.651Z,2012.00
2023-04-28T08:15:56.672Z,2404.00
2023-04-28T08:16:56.589Z,3036.00
2023-04-28T08:17:56.589Z,1792.00
2023-04-28T08:18:56.588Z,1368.00
2023-04-28T08:19:56.495Z,1440.00
2023-04-28T08:20:56.467Z,1248.00
2023-04-28T08:21:56.429Z,1028.00
2023-04-28T08:22:56.394Z,948.00
2023-04-28T08:23:56.378Z,964.00
2023-04-28T08:24:56.332Z,968.00
2023-04-28T08:25:56.296Z,948.00
2023-04-28T08:26:56.265Z,1136.00
2023-04-28T08:27:57.394Z,1212.00
2023-04-28T08:28:56.237Z,1332.00
2023-04-28T08:29:56.190Z,1480.00
2023-04-28T08:30:56.167Z,1372.00
2023-04-28T08:31:56.099Z,1264.00
2023-04-28T08:32:56.102Z,1104.00
2023-04-28T08:33:56.031Z,980.00
2023-04-28T08:34:56.009Z,1004.00
2023-04-28T08:35:55.967Z,1016.00
2023-04-28T08:36:55.945Z,1048.00
2023-04-28T08:37:55.901Z,1196.00
2023-04-28T08:38:55.870Z,1360.00
2023-04-28T08:39:55.838Z,1300.00
2023-04-28T08:40:55.805Z,1328.00
2023-04-28T08:41:55.770Z,1384.00
2023-04-28T08:42:55.756Z,1432.00
2023-04-28T08:43:55.706Z,1316.00
2023-04-28T08:44:55.678Z,1188.00
2023-04-28T08:45:55.642Z,1064.00
2023-04-28T08:46:55.685Z,1008.00
2023-04-28T08:47:55.650Z,912.00
2023-04-28T08:48:55.542Z,872.00
2023-04-28T08:49:55.515Z,880.00
2023-04-28T08:50:55.483Z,868.00
2023-04-28T08:51:55.473Z,880.00
2023-04-28T08:52:55.421Z,808.00
2023-04-28T08:54:55.423Z,696.00
2023-04-28T08:55:55.355Z,676.00
2023-04-28T08:56:55.290Z,632.00
2023-04-28T08:57:55.253Z,636.00
2023-04-28T08:58:55.338Z,568.00
2023-04-28T08:59:55.190Z,524.00
2023-04-28T09:00:55.174Z,596.00
2023-04-28T09:01:55.207Z,704.00
2023-04-28T09:02:55.169Z,840.00
2023-04-28T09:03:55.200Z,860.00
2023-04-28T09:04:55.209Z,988.00
2023-04-28T09:05:55.015Z,1116.00
2023-04-28T09:06:54.984Z,1140.00
2023-04-28T09:07:54.933Z,1000.00
2023-04-28T09:08:54.906Z,920.00
2023-04-28T09:09:54.876Z,948.00
2023-04-28T09:10:54.828Z,936.00
2023-04-28T09:11:54.797Z,932.00
2023-04-28T09:12:54.777Z,880.00
2023-04-28T09:13:54.734Z,788.00
2023-04-28T09:14:54.704Z,832.00
2023-04-28T09:15:54.679Z,836.00
2023-04-28T09:16:54.712Z,760.00
2023-04-28T09:17:54.707Z,888.00
2023-04-28T09:18:54.576Z,1068.00
2023-04-28T09:19:54.538Z,1116.00
2023-04-28T09:20:54.507Z,1244.00
2023-04-28T09:21:54.609Z,1364.00
2023-04-28T09:22:54.501Z,1364.00
2023-04-28T09:23:54.407Z,1316.00
2023-04-28T09:24:54.379Z,1224.00
2023-04-28T09:25:54.356Z,1052.00
2023-04-28T09:26:55.688Z,932.00
2023-04-28T09:27:54.279Z,904.00
2023-04-28T09:28:54.250Z,896.00
2023-04-28T09:29:54.220Z,872.00
2023-04-28T09:30:54.199Z,872.00
2023-04-28T09:31:54.228Z,852.00
2023-04-28T09:32:54.163Z,800.00
2023-04-28T09:33:54.085Z,732.00
2023-04-28T09:34:54.208Z,744.00
2023-04-28T09:35:54.032Z,812.00
2023-04-28T09:36:54.000Z,820.00
2023-04-28T09:37:53.997Z,884.00
2023-04-28T09:38:55.077Z,960.00
2023-04-28T09:39:53.916Z,916.00
2023-04-28T09:40:53.877Z,848.00
2023-04-28T09:41:53.840Z,896.00
2023-04-28T09:42:53.796Z,1000.00
2023-04-28T09:43:53.768Z,1032.00
2023-04-28T09:44:53.742Z,976.00
2023-04-28T09:45:53.811Z,1004.00
2023-04-28T09:46:53.672Z,912.00
2023-04-28T09:47:53.697Z,840.00
2023-04-28T09:48:53.601Z,928.00
2023-04-28T09:49:53.592Z,976.00
2023-04-28T09:50:53.540Z,932.00
2023-04-28T09:51:53.505Z,904.00
2023-04-28T09:52:53.478Z,988.00
2023-04-28T09:53:53.437Z,1116.00
2023-04-28T09:54:53.408Z,1136.00
2023-04-28T09:55:53.375Z,1108.00
2023-04-28T09:56:53.342Z,968.00
2023-04-28T09:57:53.307Z,924.00
2023-04-28T09:58:53.276Z,940.00
2023-04-28T09:59:53.241Z,948.00
2023-04-28T10:00:53.238Z,1040.00
2023-04-28T10:01:53.377Z,1212.00
2023-04-28T10:02:53.318Z,1328.00
2023-04-28T10:03:53.186Z,1360.00
2023-04-28T10:04:53.247Z,1392.00
2023-04-28T10:05:53.050Z,1440.00
2023-04-28T10:06:53.010Z,1516.00
2023-04-28T10:07:52.977Z,1708.00
2023-04-28T10:08:52.952Z,1924.00
2023-04-28T10:09:52.906Z,2008.00
2023-04-28T10:10:52.877Z,2088.00
2023-04-28T10:11:52.850Z,2184.00
2023-04-28T10:12:52.812Z,2104.00
2023-04-28T10:13:52.779Z,1864.00
2023-04-28T10:14:52.754Z,1832.00
2023-04-28T10:15:52.745Z,1732.00
2023-04-28T10:16:52.687Z,1728.00
2023-04-28T10:17:52.699Z,1868.00
2023-04-28T10:18:52.621Z,2024.00
2023-04-28T10:19:52.580Z,2112.00
2023-04-28T10:20:52.550Z,1836.00
2023-04-28T10:21:52.522Z,1480.00
2023-04-28T10:22:52.495Z,1344.00
2023-04-28T10:23:52.461Z,1284.00
2023-04-28T10:24:52.421Z,1112.00
2023-04-28T10:25:52.385Z,1060.00
2023-04-28T10:26:52.354Z,1184.00
2023-04-28T10:27:52.348Z,1080.00
2023-04-28T10:28:52.308Z,992.00
2023-04-28T10:29:52.289Z,1092.00
2023-04-28T10:30:52.248Z,1200.00
2023-04-28T10:31:52.200Z,1128.00
2023-04-28T10:32:52.183Z,1036.00
2023-04-28T10:33:52.133Z,940.00
2023-04-28T10:34:52.099Z,940.00
2023-04-28T10:35:52.072Z,868.00
2023-04-28T10:36:52.036Z,880.00
2023-04-28T10:37:52.004Z,996.00
2023-04-28T10:38:51.965Z,964.00
2023-04-28T10:39:51.930Z,884.00
2023-04-28T10:40:51.908Z,956.00
2023-04-28T10:41:51.872Z,1176.00
2023-04-28T10:42:51.859Z,1252.00
2023-04-28T10:43:51.814Z,1408.00
2023-04-28T10:44:51.776Z,1724.00
2023-04-28T10:45:55.319Z,2392.00
2023-04-28T10:46:51.791Z,3116.00
2023-04-28T10:47:51.777Z,3708.00
2023-04-28T10:48:51.650Z,4068.00
2023-04-28T10:49:51.613Z,4412.00
2023-04-28T10:50:51.585Z,3608.00
2023-04-28T10:51:51.556Z,3172.00
2023-04-28T10:52:51.539Z,3476.00
2023-04-28T10:53:51.486Z,3676.00
2023-04-28T10:54:51.458Z,3440.00
2023-04-28T10:55:51.419Z,3376.00
2023-04-28T10:56:51.390Z,3416.00
2023-04-28T10:57:51.360Z,3192.00
2023-04-28T10:58:51.329Z,2524.00
2023-04-28T10:59:51.297Z,2332.00
2023-04-28T11:00:51.265Z,2616.00
2023-04-28T11:01:51.298Z,2796.00
2023-04-28T11:02:51.398Z,2904.00
2023-04-28T11:03:51.573Z,2536.00
2023-04-28T11:04:51.281Z,2416.00
2023-04-28T11:05:51.102Z,2644.00
2023-04-28T11:06:51.078Z,2744.00
2023-04-28T11:07:51.037Z,3068.00
2023-04-28T11:08:51.005Z,3036.00
2023-04-28T11:09:50.980Z,3072.00
2023-04-28T11:10:50.947Z,3224.00
2023-04-28T11:11:50.919Z,4072.00
2023-04-28T11:12:50.885Z,4556.00
2023-04-28T11:13:50.862Z,3472.00
2023-04-28T11:14:50.818Z,4148.00
2023-04-28T11:15:50.810Z,5272.00
2023-04-28T11:16:51.003Z,6636.00
2023-04-28T11:17:50.796Z,4996.00
2023-04-28T11:18:52.743Z,6000.00
2023-04-28T11:19:50.684Z,3608.00
2023-04-28T11:20:50.637Z,3428.00
2023-04-28T11:21:50.602Z,4404.00
2023-04-28T11:22:50.589Z,6628.00
2023-04-28T11:23:50.539Z,3888.00
2023-04-28T11:24:51.874Z,3460.00
2023-04-28T11:25:50.478Z,3336.00
2023-04-28T11:26:50.440Z,2960.00
2023-04-28T11:27:50.411Z,2956.00
2023-04-28T11:28:50.391Z,2936.00
2023-04-28T11:29:50.356Z,2812.00
2023-04-28T11:30:51.268Z,2848.00
2023-04-28T11:31:50.314Z,3016.00
2023-04-28T11:32:50.300Z,3068.00
2023-04-28T11:33:50.233Z,2784.00
2023-04-28T11:34:50.203Z,6808.00
2023-04-28T11:35:50.170Z,6968.00
2023-04-28T11:36:50.453Z,5892.00
2023-04-28T11:37:50.110Z,4904.00
2023-04-28T11:38:50.096Z,4756.00
2023-04-28T11:39:50.049Z,5696.00
2023-04-28T11:40:50.027Z,7824.00
2023-04-28T11:41:49.989Z,7496.00
2023-04-28T11:42:49.963Z,5064.00
2023-04-28T11:43:49.922Z,8820.00
2023-04-28T11:44:49.896Z,4732.00
2023-04-28T11:45:49.908Z,8564.00
2023-04-28T11:46:49.846Z,3628.00
2023-04-28T11:47:49.848Z,3356.00
2023-04-28T11:48:49.785Z,3756.00
2023-04-28T11:49:49.757Z,3180.00
2023-04-28T11:50:49.725Z,3796.00
2023-04-28T11:51:49.696Z,3172.00
2023-04-28T11:52:50.990Z,3016.00
2023-04-28T11:53:49.627Z,3096.00
2023-04-28T11:54:49.608Z,3220.00
2023-04-28T11:55:49.567Z,3068.00
2023-04-28T11:56:49.541Z,3752.00
2023-04-28T11:57:49.518Z,3960.00
2023-04-28T11:58:49.483Z,7716.00
2023-04-28T11:59:49.945Z,10472.00
2023-04-28T12:00:49.420Z,10104.00
2023-04-28T12:01:49.387Z,9296.00
2023-04-28T12:02:49.464Z,8404.00
2023-04-28T12:03:49.448Z,10452.00
2023-04-28T12:04:49.302Z,5412.00
2023-04-28T12:05:49.309Z,10140.00
2023-04-28T12:06:49.246Z,10548.00
2023-04-28T12:07:49.217Z,4208.00
2023-04-28T12:08:49.190Z,7532.00
2023-04-28T12:09:49.165Z,10048.00
2023-04-28T12:10:49.134Z,10216.00
2023-04-28T12:11:49.101Z,10420.00
2023-04-28T12:12:52.060Z,10592.00
2023-04-28T12:13:49.042Z,10472.00
2023-04-28T12:14:49.012Z,10444.00
2023-04-28T12:15:49.034Z,5324.00
2023-04-28T12:16:48.967Z,10200.00
2023-04-28T12:17:48.956Z,10320.00
2023-04-28T12:18:48.901Z,10380.00
2023-04-28T12:19:48.871Z,10580.00
2023-04-28T12:20:48.848Z,10660.00
2023-04-28T12:21:48.817Z,10800.00
2023-04-28T12:22:48.798Z,10932.00
2023-04-28T12:23:48.760Z,11032.00
2023-04-28T12:24:48.740Z,11132.00
2023-04-28T12:25:48.714Z,11272.00
2023-04-28T12:26:48.777Z,11420.00
2023-04-28T12:27:48.650Z,11496.00
2023-04-28T12:28:48.636Z,11348.00
2023-04-28T12:29:48.606Z,11516.00
2023-04-28T12:30:48.576Z,11628.00
2023-04-28T12:31:48.595Z,11860.00
2023-04-28T12:32:48.559Z,12060.00
2023-04-28T12:33:48.493Z,11900.00
2023-04-28T12:34:48.464Z,11844.00
2023-04-28T12:35:48.436Z,11840.00
2023-04-28T12:36:48.410Z,12004.00
2023-04-28T12:37:48.382Z,12224.00